createdAt,value
2022-12-25T00:01:41.135Z,12.10
2022-12-25T00:04:13.815Z,12.90
2022-12-25T00:06:46.610Z,12.00
2022-12-25T00:09:19.423Z,12.50
2022-12-25T00:11:51.734Z,10.10
2022-12-25T00:14:24.171Z,12.30
2022-12-25T00:16:56.783Z,10.60
2022-12-25T00:19:29.433Z,11.20
2022-12-25T00:22:01.741Z,16.70
2022-12-25T00:24:34.299Z,16.10
2022-12-25T00:27:06.826Z,14.20
2022-12-25T00:29:39.660Z,11.10
2022-12-25T00:32:12.254Z,12.40
2022-12-25T00:34:45.211Z,14.10
2022-12-25T00:37:17.787Z,24.40
2022-12-25T00:39:50.880Z,24.70
2022-12-25T00:42:24.169Z,21.40
2022-12-25T00:44:56.647Z,20.20
2022-12-25T00:47:29.665Z,18.70
2022-12-25T00:50:02.214Z,14.40
2022-12-25T00:52:34.911Z,16.70
2022-12-25T00:55:08.603Z,13.70
2022-12-25T00:57:41.599Z,13.60
2022-12-25T01:00:15.969Z,15.50
2022-12-25T01:02:48.688Z,14.50
2022-12-25T01:05:21.757Z,14.50
2022-12-25T01:07:54.041Z,13.90
2022-12-25T01:10:26.290Z,12.80
2022-12-25T01:12:58.894Z,11.40
2022-12-25T01:15:31.674Z,11.20
2022-12-25T01:18:07.933Z,11.80
2022-12-25T01:20:41.875Z,12.70
2022-12-25T01:23:14.904Z,11.10
2022-12-25T01:25:47.254Z,10.70
2022-12-25T01:28:20.471Z,14.50
2022-12-25T01:30:53.348Z,20.40
2022-12-25T01:33:26.400Z,17.80
2022-12-25T01:35:59.102Z,24.20
2022-12-25T01:38:31.858Z,22.10
2022-12-25T01:41:04.886Z,20.50
2022-12-25T01:43:38.300Z,22.40
2022-12-25T01:46:11.418Z,21.20
2022-12-25T01:48:44.080Z,19.80
2022-12-25T01:51:24.075Z,16.40
2022-12-25T01:54:01.147Z,16.40
2022-12-25T01:56:35.770Z,15.50
2022-12-25T01:59:10.807Z,16.30
2022-12-25T02:01:43.789Z,16.40
2022-12-25T02:04:23.648Z,26.30
2022-12-25T02:06:56.123Z,31.60
2022-12-25T02:09:28.577Z,30.50
2022-12-25T02:12:01.816Z,24.70
2022-12-25T02:14:36.632Z,18.70
2022-12-25T02:17:18.599Z,20.00
2022-12-25T02:20:17.796Z,18.40
2022-12-25T02:23:06.221Z,16.80
2022-12-25T02:25:51.267Z,12.10
2022-12-25T02:28:28.839Z,13.10
2022-12-25T02:31:09.911Z,13.00
2022-12-25T02:34:06.699Z,11.20
2022-12-25T02:36:47.220Z,15.40
2022-12-25T02:39:43.448Z,16.10
2022-12-25T02:42:22.677Z,14.30
2022-12-25T02:45:21.218Z,16.10
2022-12-25T02:48:16.724Z,16.20
2022-12-25T02:51:07.843Z,15.20
2022-12-25T02:54:00.767Z,16.40
2022-12-25T02:56:53.719Z,16.50
2022-12-25T02:59:46.480Z,15.80
2022-12-25T03:02:38.839Z,13.50
2022-12-25T03:05:33.717Z,15.20
2022-12-25T03:13:36.911Z,17.80
2022-12-25T03:16:27.497Z,16.80
2022-12-25T03:19:00.968Z,18.60
2022-12-25T03:21:50.890Z,19.00
2022-12-25T03:24:42.010Z,20.10
2022-12-25T03:27:14.785Z,18.10
2022-12-25T03:30:05.461Z,17.30
2022-12-25T03:32:44.706Z,15.80
2022-12-25T03:35:27.676Z,16.00
2022-12-25T03:38:39.889Z,14.90
2022-12-25T03:41:38.772Z,16.20
2022-12-25T03:44:39.387Z,16.40
2022-12-25T03:47:35.782Z,19.40
2022-12-25T03:50:34.560Z,16.90
2022-12-25T03:53:29.822Z,15.50
2022-12-25T03:56:20.480Z,14.30
2022-12-25T03:59:23.127Z,16.60
2022-12-25T04:02:14.209Z,15.10
2022-12-25T04:05:04.765Z,14.60
2022-12-25T04:07:55.529Z,17.30
2022-12-25T04:10:53.956Z,14.10
2022-12-25T04:13:40.103Z,15.70
2022-12-25T04:16:30.219Z,14.80
2022-12-25T04:19:20.816Z,15.70
2022-12-25T04:22:11.463Z,16.40
2022-12-25T04:25:02.201Z,16.20
2022-12-25T04:27:52.949Z,16.70
2022-12-25T04:30:43.902Z,33.00
2022-12-25T04:33:33.808Z,33.20
2022-12-25T04:36:10.342Z,18.20
2022-12-25T04:38:44.106Z,15.50
2022-12-25T04:41:17.724Z,15.20
2022-12-25T04:43:50.232Z,14.80
2022-12-25T04:46:23.020Z,13.20
2022-12-25T04:48:55.716Z,13.30
2022-12-25T04:51:28.862Z,14.70
2022-12-25T04:54:01.441Z,16.80
2022-12-25T04:56:38.590Z,20.20
2022-12-25T04:59:14.641Z,17.60
2022-12-25T05:01:47.811Z,16.90
2022-12-25T05:04:20.588Z,14.40
2022-12-25T05:06:53.078Z,15.10
2022-12-25T05:09:26.054Z,14.90
2022-12-25T05:11:58.951Z,15.30
2022-12-25T05:14:32.425Z,14.10
2022-12-25T05:17:05.790Z,11.80
2022-12-25T05:19:38.592Z,12.70
2022-12-25T05:22:11.163Z,13.90
2022-12-25T05:24:43.850Z,14.80
2022-12-25T05:27:17.174Z,15.20
2022-12-25T05:29:50.036Z,14.60
2022-12-25T05:32:22.761Z,12.50
2022-12-25T05:34:55.193Z,12.70
2022-12-25T05:37:28.451Z,13.70
2022-12-25T05:40:00.818Z,14.30
2022-12-25T05:42:33.317Z,13.60
2022-12-25T05:45:06.615Z,13.40
2022-12-25T05:47:39.313Z,11.50
2022-12-25T05:50:12.723Z,15.30
2022-12-25T05:52:45.690Z,14.80
2022-12-25T05:55:18.589Z,15.40
2022-12-25T05:57:51.374Z,12.60
2022-12-25T06:00:24.763Z,13.30
2022-12-25T06:02:57.605Z,14.00
2022-12-25T06:05:31.248Z,13.20
2022-12-25T06:08:04.112Z,15.60
2022-12-25T06:10:37.533Z,18.10
2022-12-25T06:13:10.215Z,20.60
2022-12-25T06:15:44.023Z,20.40
2022-12-25T06:18:16.769Z,17.50
2022-12-25T06:20:49.687Z,16.10
2022-12-25T06:23:22.427Z,14.20
2022-12-25T06:25:55.200Z,14.50
2022-12-25T06:28:27.934Z,15.10
2022-12-25T06:31:00.821Z,16.60
2022-12-25T06:33:34.089Z,15.80
2022-12-25T06:36:10.542Z,19.40
2022-12-25T06:38:43.365Z,20.50
2022-12-25T06:41:18.529Z,18.20
2022-12-25T06:43:53.654Z,15.40
2022-12-25T06:46:29.294Z,15.80
2022-12-25T06:49:03.572Z,13.60
2022-12-25T06:51:36.508Z,11.10
2022-12-25T06:54:45.454Z,11.60
2022-12-25T06:58:29.553Z,11.80
2022-12-25T07:05:58.528Z,15.10
2022-12-25T07:08:31.126Z,13.20
2022-12-25T07:11:56.104Z,15.60
2022-12-25T07:15:18.158Z,14.40
2022-12-25T07:18:42.033Z,15.10
2022-12-25T07:22:19.409Z,13.50
2022-12-25T07:25:20.539Z,17.70
2022-12-25T07:28:44.623Z,17.30
2022-12-25T07:36:54.543Z,20.60
2022-12-25T07:44:22.950Z,24.10
2022-12-25T07:46:55.346Z,24.50
2022-12-25T07:54:57.814Z,21.10
2022-12-25T07:57:39.308Z,20.80
2022-12-25T08:00:18.455Z,21.90
2022-12-25T08:03:17.291Z,29.20
2022-12-25T08:05:53.106Z,29.00
2022-12-25T08:09:37.841Z,29.80
2022-12-25T08:12:17.625Z,23.50
2022-12-25T08:15:17.708Z,24.50
2022-12-25T08:17:54.849Z,36.30
2022-12-25T08:24:58.538Z,62.50
2022-12-25T08:27:59.075Z,47.30
2022-12-25T08:31:46.640Z,53.70
2022-12-25T08:34:19.655Z,37.00
2022-12-25T08:41:50.162Z,63.50
2022-12-25T08:45:35.302Z,78.40
2022-12-25T08:48:11.610Z,84.10
2022-12-25T08:50:49.550Z,59.50
2022-12-25T08:53:50.836Z,34.60
2022-12-25T08:56:53.358Z,31.80
2022-12-25T09:03:41.080Z,33.70
2022-12-25T09:06:37.756Z,44.90
2022-12-25T09:18:21.475Z,26.00
2022-12-25T09:22:07.760Z,26.00
2022-12-25T09:24:44.067Z,20.70
2022-12-25T09:28:28.890Z,22.00
2022-12-25T09:31:26.219Z,18.40
2022-12-25T09:34:47.149Z,19.80
2022-12-25T09:37:20.134Z,17.30
2022-12-25T09:39:52.863Z,19.10
2022-12-25T09:42:37.606Z,18.50
2022-12-25T09:45:16.821Z,19.80
2022-12-25T09:49:02.977Z,20.00
2022-12-25T09:51:42.330Z,19.80
2022-12-25T09:54:51.164Z,17.40
2022-12-25T09:57:26.344Z,21.30
2022-12-25T09:59:59.437Z,20.10
2022-12-25T10:03:14.210Z,19.30
2022-12-25T10:06:22.497Z,19.00
2022-12-25T10:09:42.039Z,21.50
2022-12-25T10:12:33.569Z,21.70
2022-12-25T10:24:05.503Z,17.30
2022-12-25T10:26:38.435Z,20.30
2022-12-25T10:29:19.996Z,22.40
2022-12-25T10:32:22.625Z,18.10
2022-12-25T10:35:00.206Z,20.00
2022-12-25T10:37:36.728Z,16.30
2022-12-25T10:40:43.125Z,15.50
2022-12-25T10:44:32.969Z,17.00
2022-12-25T10:47:07.095Z,15.40
2022-12-25T10:50:28.986Z,18.10
2022-12-25T10:53:08.164Z,14.50
2022-12-25T10:55:44.168Z,15.90
2022-12-25T10:59:14.090Z,12.80
2022-12-25T11:06:25.614Z,16.40
2022-12-25T11:10:10.212Z,14.70
2022-12-25T11:13:56.224Z,13.40
2022-12-25T11:16:47.754Z,12.90
2022-12-25T11:19:33.890Z,13.40
2022-12-25T11:22:32.970Z,13.80
2022-12-25T11:25:32.405Z,10.70
2022-12-25T11:29:26.071Z,12.40
2022-12-25T11:32:26.816Z,14.10
2022-12-25T11:38:43.291Z,17.00
2022-12-25T11:41:20.880Z,17.40
2022-12-25T11:43:59.418Z,14.40
2022-12-25T11:46:42.882Z,13.80
2022-12-25T11:49:50.068Z,15.50
2022-12-25T11:52:30.506Z,15.60
2022-12-25T11:55:17.457Z,16.40
2022-12-25T12:02:50.686Z,12.70
2022-12-25T12:06:12.316Z,14.60
2022-12-25T12:09:36.781Z,13.80
2022-12-25T12:12:18.457Z,15.80
2022-12-25T12:15:41.440Z,14.10
2022-12-25T12:18:48.155Z,12.30
2022-12-25T12:21:40.692Z,16.50
2022-12-25T12:24:19.408Z,24.70
2022-12-25T12:27:08.078Z,18.40
2022-12-25T12:34:59.593Z,23.60
2022-12-25T12:38:27.705Z,30.10
2022-12-25T12:41:15.492Z,29.20
2022-12-25T12:45:01.291Z,27.60
2022-12-25T12:47:42.841Z,30.20
2022-12-25T12:50:43.258Z,27.30
2022-12-25T12:53:32.224Z,18.60
2022-12-25T12:56:29.319Z,18.60
2022-12-25T12:59:50.507Z,19.30
2022-12-25T13:02:44.974Z,19.80
2022-12-25T13:06:34.153Z,24.70
2022-12-25T13:14:22.687Z,30.00
2022-12-25T13:17:01.992Z,26.20
2022-12-25T13:19:47.805Z,28.90
2022-12-25T13:23:32.268Z,27.60
2022-12-25T13:26:33.475Z,19.10
2022-12-25T13:29:53.547Z,14.10
2022-12-25T13:32:30.183Z,20.80
2022-12-25T13:35:19.370Z,32.10
2022-12-25T13:42:06.846Z,31.30
2022-12-25T13:44:46.636Z,21.10
2022-12-25T13:47:24.144Z,20.50
2022-12-25T13:55:08.812Z,20.70
2022-12-25T13:58:54.365Z,21.60
2022-12-25T14:01:29.374Z,17.40
2022-12-25T14:04:49.697Z,15.10
2022-12-25T14:16:59.105Z,23.50
2022-12-25T14:19:36.087Z,22.90
2022-12-25T14:22:21.630Z,29.00
2022-12-25T14:25:44.831Z,27.40
2022-12-25T14:28:32.548Z,31.20
2022-12-25T14:32:20.544Z,27.00
2022-12-25T14:34:58.373Z,10.10
2022-12-25T14:37:37.192Z,8.90
2022-12-25T14:41:00.644Z,11.00
2022-12-25T14:44:24.446Z,31.50
2022-12-25T14:47:17.789Z,20.30
2022-12-25T14:50:27.062Z,18.50
2022-12-25T14:53:50.710Z,21.00
2022-12-25T14:56:49.910Z,29.00
2022-12-25T15:00:14.930Z,16.60
2022-12-25T15:07:10.147Z,17.00
2022-12-25T15:11:00.979Z,20.00
2022-12-25T15:14:02.572Z,18.70
2022-12-25T15:17:02.149Z,20.00
2022-12-25T15:19:48.630Z,18.30
2022-12-25T15:22:47.758Z,24.80
2022-12-25T15:25:49.013Z,21.70
2022-12-25T15:29:00.250Z,37.90
2022-12-25T15:31:49.471Z,36.00
2022-12-25T15:34:30.142Z,28.90
2022-12-25T15:37:13.818Z,43.00
2022-12-25T15:39:52.230Z,42.30
2022-12-25T15:42:28.970Z,52.40
2022-12-25T15:45:02.981Z,56.90
2022-12-25T15:47:44.524Z,54.00
2022-12-25T15:50:22.471Z,89.60
2022-12-25T15:53:04.767Z,56.90
2022-12-25T15:55:49.486Z,41.40
2022-12-25T15:58:26.822Z,42.90
2022-12-25T16:01:04.705Z,44.60
2022-12-25T16:03:47.137Z,37.90
2022-12-25T16:06:22.275Z,25.40
2022-12-25T16:08:58.639Z,21.70
2022-12-25T16:11:34.187Z,28.30
2022-12-25T16:14:19.161Z,44.90
2022-12-25T16:16:55.676Z,41.90
2022-12-25T16:19:36.236Z,36.40
2022-12-25T16:24:50.641Z,28.90
2022-12-25T16:27:27.566Z,40.70
2022-12-25T16:34:46.574Z,31.80
2022-12-25T16:37:21.302Z,34.40
2022-12-25T16:40:19.536Z,35.80
2022-12-25T16:43:21.937Z,40.00
2022-12-25T16:46:24.684Z,50.70
2022-12-25T16:49:20.614Z,49.70
2022-12-25T16:51:57.229Z,49.90
2022-12-25T16:54:35.558Z,48.90
2022-12-25T16:57:16.724Z,44.10
2022-12-25T16:59:59.889Z,46.70
2022-12-25T17:02:45.096Z,42.30
2022-12-25T17:05:27.615Z,45.10
2022-12-25T17:08:01.813Z,40.60
2022-12-25T17:10:36.093Z,40.40
2022-12-25T17:13:13.644Z,48.20
2022-12-25T17:15:50.552Z,56.60
2022-12-25T17:18:24.208Z,39.40
2022-12-25T17:21:25.305Z,35.70
2022-12-25T17:24:04.733Z,32.90
2022-12-25T17:26:41.843Z,66.70
2022-12-25T17:29:47.434Z,50.70
2022-12-25T17:32:21.781Z,44.80
2022-12-25T17:34:54.879Z,32.40
2022-12-25T17:37:32.252Z,32.80
2022-12-25T17:40:11.113Z,51.40
2022-12-25T17:42:46.252Z,40.60
2022-12-25T17:45:22.582Z,34.40
2022-12-25T17:50:41.222Z,43.20
2022-12-25T17:53:18.796Z,42.70
2022-12-25T17:56:02.600Z,42.70
2022-12-25T17:58:36.995Z,40.70
2022-12-25T18:01:38.672Z,50.70
2022-12-25T18:04:16.688Z,45.80
2022-12-25T18:07:17.735Z,46.60
2022-12-25T18:09:50.499Z,48.90
2022-12-25T18:12:28.389Z,48.00
2022-12-25T18:15:04.653Z,43.80
2022-12-25T18:18:04.889Z,45.80
2022-12-25T18:21:04.219Z,41.50
2022-12-25T18:24:14.675Z,39.00
2022-12-25T18:27:14.879Z,43.50
2022-12-25T18:29:50.939Z,41.80
2022-12-25T18:32:51.411Z,41.10
2022-12-25T18:35:31.141Z,40.80
2022-12-25T18:38:04.603Z,40.30
2022-12-25T18:41:12.629Z,37.40
2022-12-25T18:43:53.807Z,37.70
2022-12-25T18:46:28.918Z,39.80
2022-12-25T18:49:54.035Z,39.30
2022-12-25T18:55:32.820Z,37.80
2022-12-25T18:58:22.781Z,35.10
2022-12-25T19:01:00.541Z,36.60
2022-12-25T19:03:36.511Z,38.10
2022-12-25T19:08:55.044Z,37.20
2022-12-25T19:11:30.408Z,41.80
2022-12-25T19:14:11.970Z,43.40
2022-12-25T19:16:49.523Z,42.70
2022-12-25T19:19:25.213Z,42.70
2022-12-25T19:22:06.380Z,38.30
2022-12-25T19:24:48.677Z,38.50
2022-12-25T19:27:51.272Z,35.50
2022-12-25T19:30:29.632Z,41.90
2022-12-25T19:33:08.151Z,41.80
2022-12-25T19:35:50.941Z,41.70
2022-12-25T19:38:24.526Z,45.90
2022-12-25T19:41:07.270Z,35.80
2022-12-25T19:43:47.778Z,35.00
2022-12-25T19:46:24.478Z,38.10
2022-12-25T19:49:53.206Z,36.00
2022-12-25T19:52:26.493Z,33.00
2022-12-25T19:55:23.790Z,35.90
2022-12-25T19:58:23.469Z,39.50
2022-12-25T20:01:22.692Z,34.60
2022-12-25T20:03:56.535Z,29.70
2022-12-25T20:06:35.165Z,31.40
2022-12-25T20:09:33.170Z,32.20
2022-12-25T20:12:53.205Z,33.00
2022-12-25T20:15:26.100Z,33.60
2022-12-25T20:18:46.446Z,35.00
2022-12-25T20:21:24.412Z,35.00
2022-12-25T20:24:03.812Z,35.70
2022-12-25T20:27:24.754Z,35.80
2022-12-25T20:30:06.271Z,35.00
2022-12-25T20:33:49.111Z,33.70
2022-12-25T20:36:51.585Z,49.60
2022-12-25T20:39:50.182Z,50.90
2022-12-25T20:42:23.566Z,31.30
2022-12-25T20:46:16.449Z,32.40
2022-12-25T20:48:51.993Z,34.40
2022-12-25T20:51:29.044Z,36.90
2022-12-25T20:54:28.150Z,42.10
2022-12-25T20:57:02.375Z,41.90
2022-12-25T20:59:38.773Z,52.70
2022-12-25T21:02:38.150Z,65.20
2022-12-25T21:05:21.253Z,48.80
2022-12-25T21:08:24.918Z,45.10
2022-12-25T21:11:02.890Z,35.60
2022-12-25T21:13:40.381Z,34.00
2022-12-25T21:17:00.803Z,35.60
2022-12-25T21:20:00.571Z,36.20
2022-12-25T21:26:59.367Z,33.40
2022-12-25T21:34:52.799Z,41.70
2022-12-25T21:38:13.770Z,36.80
2022-12-25T21:41:23.049Z,44.20
2022-12-25T21:44:03.508Z,51.80
2022-12-25T21:47:25.542Z,50.20
2022-12-25T21:51:01.081Z,39.40
2022-12-25T21:54:01.339Z,39.90
2022-12-25T21:56:57.513Z,39.40
2022-12-25T21:59:56.703Z,39.30
2022-12-25T22:03:42.523Z,41.60
2022-12-25T22:11:04.963Z,38.40
2022-12-25T22:14:51.999Z,41.90
2022-12-25T22:17:41.645Z,34.00
2022-12-25T22:21:30.199Z,33.00
2022-12-25T22:24:34.618Z,28.90
2022-12-25T22:28:19.381Z,34.50
2022-12-25T22:31:16.805Z,32.30
2022-12-25T22:34:37.771Z,30.60
2022-12-25T22:37:59.027Z,29.10
2022-12-25T22:40:57.506Z,28.10
2022-12-25T22:44:15.845Z,28.50
2022-12-25T22:47:27.753Z,26.30
2022-12-25T22:51:00.188Z,24.90
2022-12-25T22:54:45.485Z,24.00
2022-12-25T22:58:06.043Z,23.20
2022-12-25T23:01:52.578Z,23.50
2022-12-25T23:09:20.467Z,22.80
2022-12-25T23:16:22.079Z,21.70
2022-12-25T23:19:41.250Z,18.80
2022-12-25T23:23:23.515Z,17.70
2022-12-25T23:26:22.939Z,19.40
2022-12-25T23:29:51.944Z,18.80
2022-12-25T23:33:34.663Z,23.00
2022-12-25T23:44:50.092Z,19.30
2022-12-25T23:48:11.888Z,18.50
2022-12-25T23:51:21.393Z,20.50
2022-12-25T23:54:43.925Z,20.50
2022-12-25T23:57:45.415Z,22.50
